createdAt,value
2022-08-09T00:00:12.852Z,15.57
2022-08-09T00:01:55.271Z,15.58
2022-08-09T00:04:06.398Z,15.58
2022-08-09T00:06:17.602Z,15.56
2022-08-09T00:07:15.446Z,15.55
2022-08-09T00:08:53.281Z,15.55
2022-08-09T00:10:29.537Z,15.56
2022-08-09T00:12:04.690Z,15.58
2022-08-09T00:13:40.768Z,15.57
2022-08-09T00:15:15.687Z,15.56
2022-08-09T00:16:49.213Z,15.54
2022-08-09T00:18:22.791Z,15.52
2022-08-09T00:19:56.541Z,15.52
2022-08-09T00:21:30.710Z,15.50
2022-08-09T00:23:08.476Z,15.49
2022-08-09T00:24:55.808Z,15.47
2022-08-09T00:26:32.309Z,15.45
2022-08-09T00:28:06.815Z,15.46
2022-08-09T00:30:24.366Z,15.47
2022-08-09T00:32:00.969Z,15.46
2022-08-09T00:33:32.661Z,15.45
2022-08-09T00:35:16.144Z,15.46
2022-08-09T00:36:49.361Z,15.45
2022-08-09T00:38:21.821Z,15.45
2022-08-09T00:40:09.488Z,15.46
2022-08-09T00:44:15.308Z,15.49
2022-08-09T00:44:19.571Z,15.47
2022-08-09T00:45:34.747Z,15.51
2022-08-09T00:47:07.456Z,15.51
2022-08-09T00:48:40.164Z,15.51
2022-08-09T00:50:19.687Z,15.52
2022-08-09T00:51:55.828Z,15.54
2022-08-09T00:53:28.544Z,15.53
2022-08-09T00:55:02.082Z,15.52
2022-08-09T00:56:37.021Z,15.51
2022-08-09T00:58:14.739Z,15.49
2022-08-09T00:59:54.624Z,15.48
2022-08-09T01:01:32.378Z,15.45
2022-08-09T01:03:22.523Z,15.45
2022-08-09T01:05:13.915Z,15.43
2022-08-09T01:07:38.064Z,15.40
2022-08-09T01:09:15.182Z,15.37
2022-08-09T01:11:08.543Z,15.37
2022-08-09T01:12:44.142Z,15.35
2022-08-09T01:14:28.457Z,15.35
2022-08-09T01:16:01.193Z,15.34
2022-08-09T01:17:35.847Z,15.35
2022-08-09T01:19:16.660Z,15.34
2022-08-09T01:21:00.545Z,15.34
2022-08-09T01:22:54.809Z,15.33
2022-08-09T01:24:30.879Z,15.33
2022-08-09T01:26:06.088Z,15.31
2022-08-09T01:27:39.458Z,15.29
2022-08-09T01:29:15.449Z,15.29
2022-08-09T01:30:51.594Z,15.29
2022-08-09T01:32:34.237Z,15.27
2022-08-09T01:34:08.856Z,15.29
2022-08-09T01:35:45.329Z,15.33
2022-08-09T01:37:42.758Z,15.35
2022-08-09T01:39:11.243Z,15.37
2022-08-09T01:40:52.857Z,15.36
2022-08-09T01:42:39.045Z,15.36
2022-08-09T01:44:13.867Z,15.33
2022-08-09T01:45:48.596Z,15.33
2022-08-09T01:47:21.458Z,15.34
2022-08-09T01:48:59.760Z,15.30
2022-08-09T01:50:36.921Z,15.26
2022-08-09T01:52:11.380Z,15.23
2022-08-09T01:53:53.690Z,15.21
2022-08-09T01:55:28.895Z,15.18
2022-08-09T01:57:10.885Z,15.17
2022-08-09T01:58:49.021Z,15.13
2022-08-09T02:00:35.001Z,15.11
2022-08-09T02:02:09.819Z,15.07
2022-08-09T02:03:43.110Z,15.07
2022-08-09T02:05:17.025Z,15.05
2022-08-09T02:07:18.557Z,15.07
2022-08-09T02:09:02.901Z,15.05
2022-08-09T02:10:39.520Z,15.02
2022-08-09T02:12:18.041Z,14.97
2022-08-09T02:14:06.573Z,14.92
2022-08-09T02:15:49.606Z,14.88
2022-08-09T02:17:59.318Z,14.88
2022-08-09T02:19:20.359Z,14.87
2022-08-09T02:20:56.539Z,14.86
2022-08-09T02:22:39.837Z,14.86
2022-08-09T02:24:26.096Z,14.88
2022-08-09T02:26:00.174Z,14.86
2022-08-09T02:27:57.952Z,14.81
2022-08-09T02:29:27.505Z,14.73
2022-08-09T02:31:08.867Z,14.66
2022-08-09T02:32:43.686Z,14.59
2022-08-09T02:34:41.661Z,14.54
2022-08-09T02:36:26.365Z,14.42
2022-08-09T02:38:00.235Z,14.35
2022-08-09T02:39:42.016Z,14.27
2022-08-09T02:41:19.641Z,14.21
2022-08-09T02:42:55.189Z,14.14
2022-08-09T02:44:36.623Z,14.10
2022-08-09T02:46:10.491Z,14.07
2022-08-09T02:47:57.793Z,14.03
2022-08-09T02:49:38.305Z,13.99
2022-08-09T02:51:12.977Z,13.95
2022-08-09T02:52:49.863Z,13.93
2022-08-09T02:54:28.359Z,13.87
2022-08-09T02:56:04.974Z,13.83
2022-08-09T02:57:59.699Z,13.80
2022-08-09T02:59:36.535Z,13.74
2022-08-09T03:01:10.807Z,13.69
2022-08-09T03:02:58.400Z,13.63
2022-08-09T03:04:33.732Z,13.57
2022-08-09T03:06:14.595Z,13.54
2022-08-09T03:07:55.118Z,13.48
2022-08-09T03:09:33.634Z,13.44
2022-08-09T03:11:06.856Z,13.41
2022-08-09T03:12:44.001Z,13.37
2022-08-09T03:14:28.068Z,13.35
2022-08-09T03:16:06.269Z,13.33
2022-08-09T03:17:42.617Z,13.28
2022-08-09T03:19:57.744Z,13.25
2022-08-09T03:21:16.015Z,13.23
2022-08-09T03:22:56.786Z,13.23
2022-08-09T03:24:42.183Z,13.22
2022-08-09T03:26:29.382Z,13.21
2022-08-09T03:28:11.269Z,13.21
2022-08-09T03:30:00.664Z,13.22
2022-08-09T03:31:42.545Z,13.20
2022-08-09T03:33:52.994Z,13.19
2022-08-09T03:35:24.994Z,13.19
2022-08-09T03:37:56.620Z,13.17
2022-08-09T03:39:07.364Z,13.14
2022-08-09T03:40:39.630Z,13.12
2022-08-09T03:42:13.429Z,13.11
2022-08-09T03:44:08.127Z,13.11
2022-08-09T03:46:05.126Z,13.09
2022-08-09T03:47:36.660Z,13.09
2022-08-09T03:49:17.370Z,13.09
2022-08-09T03:50:52.716Z,13.07
2022-08-09T03:52:26.319Z,13.12
2022-08-09T03:54:02.950Z,13.13
2022-08-09T03:55:40.897Z,13.15
2022-08-09T03:57:20.268Z,13.17
2022-08-09T03:58:53.488Z,13.19
2022-08-09T04:00:27.460Z,13.23
2022-08-09T04:02:00.017Z,13.25
2022-08-09T04:03:46.495Z,13.30
2022-08-09T04:05:27.308Z,13.35
2022-08-09T04:07:01.179Z,13.37
2022-08-09T04:08:33.686Z,13.40
2022-08-09T04:10:06.344Z,13.43
2022-08-09T04:11:51.521Z,13.46
2022-08-09T04:13:44.883Z,13.48
2022-08-09T04:15:29.659Z,13.53
2022-08-09T04:17:09.176Z,13.56
2022-08-09T04:18:42.500Z,13.60
2022-08-09T04:20:18.346Z,13.64
2022-08-09T04:21:50.617Z,13.66
2022-08-09T04:23:25.696Z,13.70
2022-08-09T04:24:58.541Z,13.74
2022-08-09T04:26:38.053Z,13.78
2022-08-09T04:28:10.865Z,13.82
2022-08-09T04:29:49.573Z,13.85
2022-08-09T04:31:22.667Z,13.90
2022-08-09T04:33:09.498Z,13.97
2022-08-09T04:34:47.782Z,14.04
2022-08-09T04:36:30.530Z,14.12
2022-08-09T04:38:03.948Z,14.21
2022-08-09T04:39:40.538Z,14.28
2022-08-09T04:41:13.406Z,14.36
2022-08-09T04:42:45.584Z,14.44
2022-08-09T04:44:20.905Z,14.52
2022-08-09T04:45:55.674Z,14.60
2022-08-09T04:47:59.424Z,14.83
2022-08-09T04:49:40.235Z,15.13
2022-08-09T04:51:18.854Z,15.27
2022-08-09T04:52:52.815Z,15.38
2022-08-09T04:54:25.866Z,15.49
2022-08-09T04:55:59.691Z,15.70
2022-08-09T04:57:58.624Z,16.47
2022-08-09T04:59:25.136Z,17.90
2022-08-09T05:01:02.440Z,19.09
2022-08-09T05:02:36.031Z,20.12
2022-08-09T05:04:08.281Z,21.05
2022-08-09T05:05:52.056Z,21.88
2022-08-09T05:07:27.874Z,22.66
2022-08-09T05:09:04.254Z,23.31
2022-08-09T05:10:36.782Z,23.82
2022-08-09T05:12:09.808Z,24.26
2022-08-09T05:13:44.687Z,24.59
2022-08-09T05:15:38.511Z,24.91
2022-08-09T05:18:36.944Z,25.27
2022-08-09T05:19:02.106Z,25.58
2022-08-09T05:20:35.182Z,25.74
2022-08-09T05:22:54.230Z,25.91
2022-08-09T05:24:05.479Z,26.01
2022-08-09T05:25:37.960Z,26.11
2022-08-09T05:27:10.147Z,26.24
2022-08-09T05:28:46.018Z,26.48
2022-08-09T05:30:21.322Z,26.65
2022-08-09T05:31:56.334Z,26.78
2022-08-09T05:33:33.178Z,26.84
2022-08-09T05:35:05.956Z,26.85
2022-08-09T05:36:40.246Z,26.92
2022-08-09T05:38:21.846Z,27.08
2022-08-09T05:39:54.542Z,27.42
2022-08-09T05:41:27.462Z,27.64
2022-08-09T05:42:59.898Z,27.98
2022-08-09T05:44:34.955Z,28.21
2022-08-09T05:46:08.174Z,28.52
2022-08-09T05:47:52.117Z,28.81
2022-08-09T05:50:24.348Z,29.01
2022-08-09T05:51:43.097Z,29.07
2022-08-09T05:53:11.777Z,29.19
2022-08-09T05:54:55.265Z,29.39
2022-08-09T05:56:27.863Z,29.21
2022-08-09T05:58:00.038Z,29.23
2022-08-09T05:59:35.697Z,29.40
2022-08-09T06:01:09.137Z,29.67
2022-08-09T06:02:48.499Z,29.73
2022-08-09T06:04:23.742Z,29.78
2022-08-09T06:06:06.182Z,29.97
2022-08-09T06:07:39.177Z,30.07
2022-08-09T06:09:40.509Z,30.05
2022-08-09T06:11:17.654Z,30.24
2022-08-09T06:13:02.924Z,30.68
2022-08-09T06:14:42.528Z,30.87
2022-08-09T06:16:14.683Z,31.35
2022-08-09T06:17:48.730Z,31.57
2022-08-09T06:19:21.342Z,31.58
2022-08-09T06:20:58.376Z,31.90
2022-08-09T06:22:30.857Z,32.25
2022-08-09T06:24:04.632Z,32.54
2022-08-09T06:25:37.534Z,32.73
2022-08-09T06:27:10.653Z,32.76
2022-08-09T06:28:47.681Z,32.48
2022-08-09T06:30:23.097Z,32.11
2022-08-09T06:32:18.379Z,32.24
2022-08-09T06:33:52.942Z,32.23
2022-08-09T06:35:56.021Z,32.44
2022-08-09T06:37:18.144Z,32.73
2022-08-09T06:38:50.533Z,32.48
2022-08-09T06:40:24.265Z,31.88
2022-08-09T06:42:08.909Z,31.73
2022-08-09T06:43:44.048Z,31.63
2022-08-09T06:46:04.663Z,31.65
2022-08-09T06:47:08.559Z,31.56
2022-08-09T06:48:43.689Z,31.53
2022-08-09T06:50:19.237Z,31.65
2022-08-09T06:51:54.697Z,31.72
2022-08-09T06:53:33.317Z,31.59
2022-08-09T06:55:14.000Z,31.48
2022-08-09T06:56:47.161Z,31.25
2022-08-09T07:00:47.023Z,31.14
2022-08-09T07:00:52.508Z,31.24
2022-08-09T07:02:05.157Z,31.18
2022-08-09T07:03:39.654Z,31.29
2022-08-09T07:05:24.700Z,31.58
2022-08-09T07:08:00.909Z,31.77
2022-08-09T07:09:53.498Z,31.99
2022-08-09T07:11:06.275Z,32.09
2022-08-09T07:12:40.942Z,31.92
2022-08-09T07:14:18.121Z,31.59
2022-08-09T07:16:42.254Z,31.48
2022-08-09T07:17:52.617Z,31.72
2022-08-09T07:19:28.164Z,31.73
2022-08-09T07:21:00.435Z,31.71
2022-08-09T07:22:34.830Z,31.61
2022-08-09T07:24:16.383Z,31.45
2022-08-09T07:25:52.474Z,31.29
2022-08-09T07:27:42.988Z,31.24
2022-08-09T07:29:25.888Z,31.26
2022-08-09T07:31:05.022Z,31.35
2022-08-09T07:32:37.363Z,31.49
2022-08-09T07:34:19.605Z,31.78
2022-08-09T07:35:54.721Z,31.81
2022-08-09T07:37:27.045Z,31.76
2022-08-09T07:39:00.425Z,31.89
2022-08-09T07:41:00.654Z,31.90
2022-08-09T07:42:32.790Z,31.82
2022-08-09T07:44:05.488Z,31.78
2022-08-09T07:45:40.571Z,31.72
2022-08-09T07:47:13.317Z,31.88
2022-08-09T07:48:58.972Z,31.96
2022-08-09T07:50:36.314Z,32.05
2022-08-09T07:52:16.852Z,32.15
2022-08-09T07:54:05.165Z,32.28
2022-08-09T07:55:41.384Z,32.39
2022-08-09T07:57:36.116Z,32.20
2022-08-09T07:59:14.063Z,32.06
2022-08-09T08:00:49.307Z,32.10
2022-08-09T08:02:34.505Z,31.88
2022-08-09T08:04:10.622Z,31.81
2022-08-09T08:05:54.806Z,31.89
2022-08-09T08:08:42.802Z,31.60
2022-08-09T08:09:41.098Z,31.60
2022-08-09T08:12:24.054Z,31.95
2022-08-09T08:13:10.405Z,31.88
2022-08-09T08:14:43.337Z,31.71
2022-08-09T08:16:29.519Z,31.64
2022-08-09T08:18:04.329Z,31.52
2022-08-09T08:19:36.853Z,31.43
2022-08-09T08:21:09.455Z,31.33
2022-08-09T08:22:41.789Z,31.17
2022-08-09T08:24:16.741Z,30.94
2022-08-09T08:25:50.386Z,30.82
2022-08-09T08:27:27.151Z,30.69
2022-08-09T08:29:13.162Z,30.19
2022-08-09T08:30:47.519Z,30.07
2022-08-09T08:32:28.694Z,30.07
2022-08-09T08:34:01.910Z,30.02
2022-08-09T08:35:52.947Z,29.99
2022-08-09T08:37:41.514Z,29.77
2022-08-09T08:39:22.006Z,29.50
2022-08-09T08:40:55.761Z,29.40
2022-08-09T08:42:32.109Z,29.24
2022-08-09T08:44:04.691Z,29.08
2022-08-09T08:45:43.317Z,29.11
2022-08-09T08:47:27.523Z,29.14
2022-08-09T08:49:01.660Z,29.23
2022-08-09T08:50:34.438Z,28.92
2022-08-09T08:52:09.990Z,28.71
2022-08-09T08:54:03.863Z,28.67
2022-08-09T08:55:35.791Z,28.55
2022-08-09T08:57:11.314Z,28.41
2022-08-09T08:58:46.500Z,28.27
2022-08-09T09:00:20.702Z,28.05
2022-08-09T09:02:00.345Z,27.96
2022-08-09T09:03:38.249Z,27.88
2022-08-09T09:05:12.244Z,27.85
2022-08-09T09:06:46.219Z,27.67
2022-08-09T09:08:29.743Z,27.64
2022-08-09T09:10:09.119Z,27.66
2022-08-09T09:11:42.141Z,27.59
2022-08-09T09:13:17.794Z,27.56
2022-08-09T09:14:52.045Z,27.43
2022-08-09T09:16:29.906Z,27.23
2022-08-09T09:18:03.921Z,26.90
2022-08-09T09:19:41.463Z,26.53
2022-08-09T09:21:13.994Z,26.24
2022-08-09T09:22:55.551Z,25.91
2022-08-09T09:24:28.990Z,25.57
2022-08-09T09:26:12.469Z,25.36
2022-08-09T09:28:03.740Z,25.24
2022-08-09T09:30:12.257Z,25.04
2022-08-09T09:32:01.869Z,24.87
2022-08-09T09:33:44.403Z,24.71
2022-08-09T09:35:20.335Z,24.61
2022-08-09T09:36:54.714Z,24.56
2022-08-09T09:39:02.578Z,24.55
2022-08-09T09:40:46.167Z,24.57
2022-08-09T09:42:25.568Z,24.60
2022-08-09T09:44:12.221Z,24.64
2022-08-09T09:47:58.766Z,24.67
2022-08-09T09:50:07.179Z,24.74
2022-08-09T09:51:26.126Z,24.74
2022-08-09T09:53:15.296Z,24.73
2022-08-09T09:54:55.687Z,24.76
2022-08-09T09:56:35.947Z,24.81
2022-08-09T09:58:16.257Z,24.80
2022-08-09T09:59:52.066Z,24.87
2022-08-09T10:01:31.351Z,24.90
2022-08-09T10:03:13.899Z,24.92
2022-08-09T10:05:02.167Z,24.95
2022-08-09T10:06:42.638Z,24.95
2022-08-09T10:08:27.751Z,24.97
2022-08-09T10:10:03.072Z,24.99
2022-08-09T10:12:04.405Z,25.00
2022-08-09T10:13:43.308Z,25.06
2022-08-09T10:15:36.812Z,25.11
2022-08-09T10:17:38.815Z,25.16
2022-08-09T10:19:06.722Z,25.19
2022-08-09T10:20:45.541Z,25.24
2022-08-09T10:22:18.401Z,25.32
2022-08-09T10:24:04.264Z,25.38
2022-08-09T10:26:07.185Z,25.44
2022-08-09T10:27:34.599Z,25.56
2022-08-09T10:29:13.725Z,25.66
2022-08-09T10:32:27.703Z,25.75
2022-08-09T10:32:58.259Z,25.94
2022-08-09T10:34:33.925Z,26.03
2022-08-09T10:36:12.427Z,26.15
2022-08-09T10:37:45.213Z,26.23
2022-08-09T10:39:19.468Z,26.21
2022-08-09T10:40:52.327Z,26.36
2022-08-09T10:42:26.968Z,26.55
2022-08-09T10:44:01.925Z,26.78
2022-08-09T10:45:35.355Z,27.00
2022-08-09T10:48:12.058Z,27.20
2022-08-09T10:49:21.732Z,27.38
2022-08-09T10:51:41.079Z,27.41
2022-08-09T10:53:23.203Z,27.49
2022-08-09T10:54:56.223Z,27.57
2022-08-09T10:56:29.969Z,27.58
2022-08-09T10:58:03.570Z,27.58
2022-08-09T10:59:55.368Z,27.59
2022-08-09T11:03:14.939Z,27.59
2022-08-09T11:03:50.979Z,27.68
2022-08-09T11:05:24.870Z,27.80
2022-08-09T11:07:03.017Z,27.99
2022-08-09T11:08:47.427Z,28.12
2022-08-09T11:10:38.915Z,28.13
2022-08-09T11:12:20.683Z,28.07
2022-08-09T11:14:11.787Z,28.06
2022-08-09T11:16:05.017Z,28.04
2022-08-09T11:17:42.035Z,28.25
2022-08-09T11:19:14.375Z,28.45
2022-08-09T11:20:52.918Z,28.63
2022-08-09T11:22:57.020Z,28.66
2022-08-09T11:24:50.823Z,28.62
2022-08-09T11:26:38.774Z,28.64
2022-08-09T11:28:38.900Z,28.64
2022-08-09T11:30:32.876Z,28.70
2022-08-09T11:32:07.005Z,28.71
2022-08-09T11:34:51.433Z,28.54
2022-08-09T11:36:35.550Z,28.42
2022-08-09T11:38:32.339Z,28.26
2022-08-09T11:40:09.211Z,28.13
2022-08-09T11:41:42.107Z,28.04
2022-08-09T11:43:32.307Z,27.92
2022-08-09T11:45:05.643Z,27.80
2022-08-09T11:46:57.382Z,27.70
2022-08-09T11:48:32.336Z,27.68
2022-08-09T11:50:53.083Z,27.59
2022-08-09T11:53:01.111Z,27.67
2022-08-09T11:54:33.091Z,27.71
2022-08-09T11:56:19.522Z,27.71
2022-08-09T11:58:30.290Z,27.72
2022-08-09T12:00:16.440Z,27.71
2022-08-09T12:02:34.542Z,27.85
2022-08-09T12:03:55.327Z,28.03
2022-08-09T12:05:37.901Z,28.27
2022-08-09T12:07:14.302Z,28.45
2022-08-09T12:08:52.029Z,28.58
2022-08-09T12:10:38.698Z,28.51
2022-08-09T12:12:28.759Z,28.63
2022-08-09T12:14:18.072Z,28.71
2022-08-09T12:16:18.775Z,28.85
2022-08-09T12:18:05.901Z,28.81
2022-08-09T12:19:43.796Z,28.70
2022-08-09T12:21:39.272Z,28.57
2022-08-09T12:23:47.625Z,28.51
2022-08-09T12:25:36.582Z,28.43
2022-08-09T12:29:00.150Z,28.52
2022-08-09T12:29:32.985Z,28.76
2022-08-09T12:31:30.826Z,29.01
2022-08-09T12:33:21.248Z,29.07
2022-08-09T12:35:02.703Z,29.12
2022-08-09T12:36:49.956Z,29.15
2022-08-09T12:38:37.797Z,29.21
2022-08-09T12:40:12.372Z,29.25
2022-08-09T12:41:47.704Z,29.21
2022-08-09T12:44:05.783Z,29.12
2022-08-09T12:45:33.451Z,28.88
2022-08-09T12:47:09.052Z,28.80
2022-08-09T12:48:44.775Z,28.63
2022-08-09T12:50:23.651Z,28.58
2022-08-09T12:52:02.274Z,28.34
2022-08-09T12:53:44.947Z,28.18
2022-08-09T12:56:14.985Z,28.06
2022-08-09T12:57:39.399Z,28.11
2022-08-09T12:59:20.811Z,28.16
2022-08-09T13:00:53.364Z,28.26
2022-08-09T13:02:31.944Z,28.41
2022-08-09T13:04:08.090Z,28.56
2022-08-09T13:06:14.937Z,28.67
2022-08-09T13:08:11.495Z,28.75
2022-08-09T13:09:55.975Z,28.83
2022-08-09T13:11:42.230Z,28.98
2022-08-09T13:13:17.669Z,29.19
2022-08-09T13:14:53.626Z,29.33
2022-08-09T13:16:46.202Z,29.36
2022-08-09T13:18:20.118Z,29.34
2022-08-09T13:20:10.334Z,29.37
2022-08-09T13:23:00.687Z,29.35
2022-08-09T13:24:16.270Z,29.37
2022-08-09T13:25:53.393Z,29.33
2022-08-09T13:27:39.428Z,29.28
2022-08-09T13:29:28.625Z,29.10
2022-08-09T13:32:14.482Z,29.03
2022-08-09T13:33:11.591Z,28.87
2022-08-09T13:34:44.921Z,28.80
2022-08-09T13:36:24.272Z,28.81
2022-08-09T13:38:33.021Z,28.81
2022-08-09T13:41:56.384Z,28.76
2022-08-09T13:42:17.939Z,28.76
2022-08-09T13:43:50.567Z,28.66
2022-08-09T13:45:32.269Z,28.60
2022-08-09T13:47:31.126Z,28.59
2022-08-09T13:49:17.985Z,28.61
2022-08-09T13:50:51.170Z,28.64
2022-08-09T13:52:23.693Z,28.64
2022-08-09T13:53:57.153Z,28.64
2022-08-09T13:55:30.372Z,28.62
2022-08-09T13:57:06.508Z,28.60
2022-08-09T13:58:39.010Z,28.62
2022-08-09T14:00:13.469Z,28.67
2022-08-09T14:02:00.444Z,28.71
2022-08-09T14:04:04.897Z,28.79
2022-08-09T14:05:57.444Z,28.84
2022-08-09T14:07:20.138Z,28.84
2022-08-09T14:08:54.505Z,28.90
2022-08-09T14:10:46.607Z,28.91
2022-08-09T14:12:19.399Z,28.92
2022-08-09T14:14:23.469Z,28.91
2022-08-09T14:16:09.465Z,28.97
2022-08-09T14:18:18.704Z,29.03
2022-08-09T14:19:33.833Z,29.05
2022-08-09T14:21:06.522Z,29.05
2022-08-09T14:22:38.878Z,29.06
2022-08-09T14:24:18.585Z,28.99
2022-08-09T14:25:59.503Z,28.85
2022-08-09T14:27:37.056Z,28.78
2022-08-09T14:30:04.244Z,28.69
2022-08-09T14:31:23.516Z,28.67
2022-08-09T14:33:11.557Z,28.64
2022-08-09T14:34:44.434Z,28.65
2022-08-09T14:36:20.646Z,28.65
2022-08-09T14:38:02.279Z,28.64
2022-08-09T14:39:40.311Z,28.62
2022-08-09T14:41:26.561Z,28.56
2022-08-09T14:43:18.470Z,28.51
2022-08-09T14:44:59.943Z,28.46
2022-08-09T14:46:55.972Z,28.44
2022-08-09T14:48:26.865Z,28.36
2022-08-09T14:49:59.191Z,28.35
2022-08-09T14:51:42.297Z,28.29
2022-08-09T14:53:15.334Z,28.22
2022-08-09T14:54:49.975Z,28.22
2022-08-09T14:56:26.802Z,28.28
2022-08-09T14:58:05.181Z,28.30
2022-08-09T14:59:38.645Z,28.36
2022-08-09T15:01:13.061Z,28.35
2022-08-09T15:02:47.290Z,28.38
2022-08-09T15:04:24.179Z,28.41
2022-08-09T15:06:01.753Z,28.39
2022-08-09T15:07:36.799Z,28.36
2022-08-09T15:09:09.075Z,28.25
2022-08-09T15:10:42.225Z,28.23
2022-08-09T15:12:14.448Z,28.17
2022-08-09T15:13:56.405Z,28.10
2022-08-09T15:15:39.528Z,28.04
2022-08-09T15:17:12.071Z,27.98
2022-08-09T15:18:49.326Z,27.99
2022-08-09T15:21:55.733Z,27.99
2022-08-09T15:22:14.726Z,27.97
2022-08-09T15:24:02.744Z,27.96
2022-08-09T15:25:41.910Z,28.04
2022-08-09T15:27:14.075Z,28.03
2022-08-09T15:28:55.013Z,27.99
2022-08-09T15:31:00.670Z,27.99
2022-08-09T15:32:29.414Z,27.91
2022-08-09T15:34:27.368Z,27.92
2022-08-09T15:36:02.254Z,27.87
2022-08-09T15:37:56.826Z,27.78
2022-08-09T15:39:44.014Z,27.79
2022-08-09T15:41:31.328Z,27.75
2022-08-09T15:43:04.735Z,27.72
2022-08-09T15:44:40.426Z,27.72
2022-08-09T15:46:31.884Z,27.68
2022-08-09T15:48:28.320Z,27.68
2022-08-09T15:50:04.910Z,27.69
2022-08-09T15:52:01.950Z,27.65
2022-08-09T15:54:03.984Z,27.68
2022-08-09T15:55:24.038Z,27.62
2022-08-09T15:56:56.743Z,27.71
2022-08-09T15:58:28.965Z,27.62
2022-08-09T16:00:01.955Z,27.64
2022-08-09T16:01:37.377Z,27.62
2022-08-09T16:03:09.944Z,27.59
2022-08-09T16:04:51.557Z,27.57
2022-08-09T16:06:32.628Z,27.53
2022-08-09T16:08:24.676Z,27.54
2022-08-09T16:10:06.219Z,27.47
2022-08-09T16:11:51.557Z,27.39
2022-08-09T16:14:04.017Z,27.36
2022-08-09T16:16:10.446Z,27.35
2022-08-09T16:17:18.612Z,27.25
2022-08-09T16:18:54.539Z,27.23
2022-08-09T16:20:30.211Z,27.25
2022-08-09T16:22:02.824Z,27.18
2022-08-09T16:23:35.404Z,27.17
2022-08-09T16:25:09.296Z,27.12
2022-08-09T16:26:43.028Z,27.13
2022-08-09T16:28:25.669Z,27.07
2022-08-09T16:30:01.093Z,27.04
2022-08-09T16:31:37.966Z,27.00
2022-08-09T16:33:31.021Z,26.98
2022-08-09T16:35:07.784Z,26.97
2022-08-09T16:36:43.623Z,26.96
2022-08-09T16:38:19.014Z,26.89
2022-08-09T16:40:05.603Z,26.90
2022-08-09T16:42:03.015Z,26.86
2022-08-09T16:43:31.311Z,26.81
2022-08-09T16:45:05.808Z,26.77
2022-08-09T16:46:39.406Z,26.73
2022-08-09T16:48:40.194Z,26.65
2022-08-09T16:50:29.870Z,26.60
2022-08-09T16:52:06.334Z,26.54
2022-08-09T16:54:26.045Z,26.54
2022-08-09T16:55:58.532Z,26.53
2022-08-09T16:58:08.223Z,26.59
2022-08-09T16:59:23.059Z,26.49
2022-08-09T17:00:56.419Z,26.44
2022-08-09T17:02:30.818Z,26.35
2022-08-09T17:04:05.496Z,26.30
2022-08-09T17:06:09.328Z,26.20
2022-08-09T17:08:42.897Z,26.08
2022-08-09T17:09:45.440Z,25.98
2022-08-09T17:11:17.471Z,25.90
2022-08-09T17:12:57.254Z,25.83
2022-08-09T17:14:30.138Z,25.78
2022-08-09T17:16:02.695Z,25.73
2022-08-09T17:17:51.034Z,25.69
2022-08-09T17:19:23.885Z,25.63
2022-08-09T17:20:59.123Z,25.63
2022-08-09T17:22:32.982Z,25.61
2022-08-09T17:24:28.217Z,25.53
2022-08-09T17:26:01.787Z,25.45
2022-08-09T17:27:38.165Z,25.39
2022-08-09T17:29:11.674Z,25.36
2022-08-09T17:30:52.818Z,25.35
2022-08-09T17:32:28.293Z,25.34
2022-08-09T17:35:00.869Z,25.36
2022-08-09T17:36:02.265Z,25.32
2022-08-09T17:38:14.193Z,25.31
2022-08-09T17:39:28.024Z,25.32
2022-08-09T17:41:22.715Z,25.30
2022-08-09T17:43:33.454Z,25.19
2022-08-09T17:45:06.465Z,25.11
2022-08-09T17:46:39.097Z,24.99
2022-08-09T17:48:29.107Z,24.89
2022-08-09T17:50:14.087Z,24.86
2022-08-09T17:51:50.518Z,24.76
2022-08-09T17:53:23.454Z,24.66
2022-08-09T17:54:55.761Z,24.60
2022-08-09T17:56:35.582Z,24.57
2022-08-09T17:58:11.012Z,24.52
2022-08-09T17:59:43.614Z,24.52
2022-08-09T18:01:58.181Z,24.44
2022-08-09T18:03:25.049Z,24.46
2022-08-09T18:04:57.339Z,24.50
2022-08-09T18:06:32.203Z,24.45
2022-08-09T18:08:05.974Z,24.37
2022-08-09T18:09:43.895Z,24.34
2022-08-09T18:12:04.870Z,24.24
2022-08-09T18:13:43.019Z,24.17
2022-08-09T18:16:05.380Z,24.15
2022-08-09T18:17:27.517Z,24.13
2022-08-09T18:20:57.182Z,24.04
2022-08-09T18:21:19.267Z,23.98
2022-08-09T18:22:55.841Z,23.93
2022-08-09T18:24:28.538Z,23.90
2022-08-09T18:26:03.519Z,23.89
2022-08-09T18:28:05.360Z,23.84
2022-08-09T18:30:37.727Z,23.81
2022-08-09T18:31:32.512Z,23.74
2022-08-09T18:33:15.032Z,23.66
2022-08-09T18:34:48.184Z,23.65
2022-08-09T18:36:25.564Z,23.63
2022-08-09T18:38:04.774Z,23.66
2022-08-09T18:39:41.912Z,23.64
2022-08-09T18:41:16.386Z,23.61
2022-08-09T18:42:48.740Z,23.53
2022-08-09T18:44:27.580Z,23.54
2022-08-09T18:46:49.337Z,23.48
2022-08-09T18:47:52.719Z,23.42
2022-08-09T18:49:25.274Z,23.29
2022-08-09T18:50:57.491Z,23.26
2022-08-09T18:52:35.017Z,23.25
2022-08-09T18:54:16.517Z,23.25
2022-08-09T18:55:56.517Z,23.23
2022-08-09T18:57:43.027Z,23.20
2022-08-09T18:59:16.126Z,23.24
2022-08-09T19:00:48.331Z,23.18
2022-08-09T19:02:24.110Z,23.13
2022-08-09T19:04:08.361Z,23.14
2022-08-09T19:06:02.790Z,23.14
2022-08-09T19:07:33.836Z,23.08
2022-08-09T19:09:07.826Z,23.11
2022-08-09T19:10:46.225Z,23.08
2022-08-09T19:12:20.835Z,23.06
2022-08-09T19:13:54.031Z,23.07
2022-08-09T19:15:32.874Z,23.06
2022-08-09T19:17:05.280Z,23.03
2022-08-09T19:18:45.319Z,22.98
2022-08-09T19:20:18.618Z,22.91
2022-08-09T19:22:04.148Z,22.86
2022-08-09T19:24:31.573Z,22.84
2022-08-09T19:26:01.007Z,22.86
2022-08-09T19:27:28.733Z,22.84
2022-08-09T19:29:03.481Z,22.86
2022-08-09T19:30:44.305Z,22.84
2022-08-09T19:32:17.126Z,22.82
2022-08-09T19:33:49.617Z,22.81
2022-08-09T19:35:26.210Z,22.73
2022-08-09T19:36:58.889Z,22.69
2022-08-09T19:38:32.982Z,22.64
2022-08-09T19:40:05.920Z,22.59
2022-08-09T19:41:38.224Z,22.56
2022-08-09T19:43:22.938Z,22.52
2022-08-09T19:45:07.814Z,22.45
2022-08-09T19:46:50.471Z,22.43
2022-08-09T19:49:01.967Z,22.37
2022-08-09T19:50:51.201Z,22.33
2022-08-09T19:52:12.331Z,22.31
2022-08-09T19:53:46.958Z,22.31
2022-08-09T19:55:30.742Z,22.35
2022-08-09T19:57:15.333Z,22.40
2022-08-09T19:58:54.061Z,22.41
2022-08-09T20:00:45.777Z,22.39
2022-08-09T20:04:07.437Z,22.35
2022-08-09T20:04:19.729Z,22.29
2022-08-09T20:05:59.343Z,22.23
2022-08-09T20:07:59.470Z,22.18
2022-08-09T20:09:44.630Z,22.10
2022-08-09T20:11:18.261Z,22.06
2022-08-09T20:12:52.075Z,22.06
2022-08-09T20:14:24.421Z,22.04
2022-08-09T20:16:34.005Z,22.01
2022-08-09T20:17:54.675Z,22.02
2022-08-09T20:19:47.766Z,22.01
2022-08-09T20:21:22.139Z,21.98
2022-08-09T20:23:12.631Z,21.98
2022-08-09T20:24:53.312Z,21.98
2022-08-09T20:26:26.733Z,21.94
2022-08-09T20:27:59.869Z,21.88
2022-08-09T20:29:37.739Z,21.81
2022-08-09T20:31:10.457Z,21.72
2022-08-09T20:32:48.309Z,21.65
2022-08-09T20:34:27.185Z,21.60
2022-08-09T20:35:59.852Z,21.56
2022-08-09T20:38:20.415Z,21.52
2022-08-09T20:40:13.335Z,21.49
2022-08-09T20:41:18.063Z,21.41
2022-08-09T20:43:18.080Z,21.36
2022-08-09T20:45:28.118Z,21.30
2022-08-09T20:46:47.022Z,21.28
2022-08-09T20:48:23.341Z,21.27
2022-08-09T20:49:55.649Z,21.21
2022-08-09T20:51:28.117Z,21.19
2022-08-09T20:53:00.996Z,21.13
2022-08-09T20:54:35.002Z,21.11
2022-08-09T20:56:20.529Z,21.05
2022-08-09T20:58:05.624Z,21.00
2022-08-09T21:00:19.128Z,20.98
2022-08-09T21:01:49.649Z,20.91
2022-08-09T21:03:22.107Z,20.91
2022-08-09T21:05:57.171Z,20.88
2022-08-09T21:06:50.911Z,20.84
2022-08-09T21:08:23.395Z,20.82
2022-08-09T21:10:11.554Z,20.77
2022-08-09T21:13:58.029Z,20.65
2022-08-09T21:15:34.111Z,20.55
2022-08-09T21:18:11.144Z,20.48
2022-08-09T21:20:02.481Z,20.38
2022-08-09T21:20:56.071Z,20.27
2022-08-09T21:22:38.955Z,20.20
2022-08-09T21:24:11.876Z,20.16
2022-08-09T21:25:55.744Z,20.13
2022-08-09T21:28:00.946Z,20.13
2022-08-09T21:29:27.457Z,20.17
2022-08-09T21:31:20.125Z,20.25
2022-08-09T21:32:53.188Z,20.30
2022-08-09T21:34:29.018Z,20.34
2022-08-09T21:36:02.617Z,20.39
2022-08-09T21:37:47.358Z,20.43
2022-08-09T21:39:42.005Z,20.40
2022-08-09T21:41:17.190Z,20.46
2022-08-09T21:42:49.608Z,20.52
2022-08-09T21:44:33.955Z,20.60
2022-08-09T21:46:08.180Z,20.66
2022-08-09T21:47:43.991Z,20.69
2022-08-09T21:49:23.406Z,20.70